Time;durP1;ratioP1;P1;durP2;ratioP2;P2;SDS_P1;SDS_P2;PMS_P1;PMS_P2;Temp;Humidity;BMP_temperature;BMP_pressure;BME280_temperature;BME280_humidity;BME280_pressure;Samples;Min_cycle;Max_cycle;Signal;HPM_P1;HPM_P2
2023/09/18 00:02:02;;;;;;;19.95;14.88;;;;;;;;;;5070088;28;20044;-60
2023/09/18 00:04:28;;;;;;;21.80;15.90;;;;;;;;;;5070069;28;20484;-63
2023/09/18 00:06:54;;;;;;;20.80;15.82;;;;;;;;;;5070394;28;20024;-63
2023/09/18 00:09:20;;;;;;;21.75;15.60;;;;;;;;;;5068708;28;20024;-63
2023/09/18 00:11:46;;;;;;;19.75;14.40;;;;;;;;;;5069833;28;20056;-63
2023/09/18 00:14:12;;;;;;;22.30;14.82;;;;;;;;;;5070070;28;20024;-62
2023/09/18 00:16:38;;;;;;;23.40;15.02;;;;;;;;;;5070067;28;20030;-60
2023/09/18 00:19:07;;;;;;;23.15;15.75;;;;;;;;;;5069943;28;20020;-63
2023/09/18 00:21:33;;;;;;;;;;;;;;;;;;5070187;28;20082;-62
2023/09/18 00:23:59;;;;;;;20.33;14.98;;;;;;;;;;5069894;28;19905;-63
2023/09/18 00:26:25;;;;;;;21.20;14.75;;;;;;;;;;5102730;28;20123;-61
2023/09/18 00:28:51;;;;;;;20.23;14.88;;;;;;;;;;5069734;28;20492;-61
2023/09/18 00:31:17;;;;;;;19.27;14.25;;;;;;;;;;5069495;28;20047;-61
2023/09/18 00:33:43;;;;;;;19.85;14.35;;;;;;;;;;5068396;28;20021;-61
2023/09/18 00:36:10;;;;;;;21.63;14.43;;;;;;;;;;5068346;28;20415;-61
2023/09/18 00:38:36;;;;;;;19.50;14.55;;;;;;;;;;5070011;28;20093;-61
2023/09/18 00:41:02;;;;;;;19.48;14.52;;;;;;;;;;5068571;28;20028;-61
2023/09/18 00:43:28;;;;;;;20.85;14.98;;;;;;;;;;5069638;28;20028;-61
2023/09/18 00:45:54;;;;;;;20.50;15.57;;;;;;;;;;5073530;28;20519;-61
2023/09/18 00:48:20;;;;;;;22.77;15.25;;;;;;;;;;5073862;28;20052;-61
2023/09/18 00:50:47;;;;;;;20.85;15.00;;;;;;;;;;5073352;28;20031;-61
2023/09/18 00:53:20;;;;;;;21.23;14.25;;;;;;;;;;5073651;28;20056;-62
2023/09/18 00:55:46;;;;;;;19.17;14.18;;;;;;;;;;5073507;28;20382;-62
2023/09/18 00:58:12;;;;;;;20.33;14.25;;;;;;;;;;5073481;28;20097;-60
2023/09/18 01:00:40;;;;;;;21.73;15.15;;;;;;;;;;5073332;28;20024;-60
2023/09/18 01:03:06;;;;;;;20.13;13.70;;;;;;;;;;5073250;28;20020;-60
2023/09/18 01:05:35;;;;;;;20.05;13.95;;;;;;;;;;5073307;28;20512;-61
2023/09/18 01:08:01;;;;;;;20.13;13.95;;;;;;;;;;5072083;28;20028;-60
2023/09/18 01:10:34;;;;;;;21.05;14.20;;;;;;;;;;5073145;28;20081;-61
2023/09/18 01:13:13;;;;;;;19.92;14.43;;;;;;;;;;5073219;28;20017;-61
2023/09/18 01:15:49;;;;;;;19.30;13.95;;;;;;;;;;5063633;28;20119;-62
2023/09/18 01:18:16;;;;;;;20.05;14.07;;;;;;;;;;5065999;28;20561;-62
2023/09/18 01:20:44;;;;;;;21.63;15.27;;;;;;;;;;5072825;28;20053;-58
2023/09/18 01:23:11;;;;;;;19.75;14.52;;;;;;;;;;5073169;28;20116;-61
2023/09/18 01:25:37;;;;;;;22.13;15.23;;;;;;;;;;5073300;28;20395;-60
2023/09/18 01:28:03;;;;;;;21.67;14.95;;;;;;;;;;5071542;28;20111;-62
2023/09/18 01:30:29;;;;;;;20.10;14.60;;;;;;;;;;5072603;28;20027;-62
2023/09/18 01:32:57;;;;;;;23.00;14.82;;;;;;;;;;5072818;28;20025;-60
2023/09/18 01:35:29;;;;;;;21.77;15.50;;;;;;;;;;5072561;28;20489;-62
2023/09/18 01:37:56;;;;;;;21.40;14.43;;;;;;;;;;5072731;28;20078;-61
2023/09/18 01:40:22;;;;;;;23.35;14.55;;;;;;;;;;5071285;28;20020;-62
2023/09/18 01:42:48;;;;;;;19.63;14.27;;;;;;;;;;5072680;28;20028;-61
2023/09/18 01:45:14;;;;;;;22.02;14.38;;;;;;;;;;5072698;28;20130;-63
2023/09/18 01:47:40;;;;;;;19.92;14.23;;;;;;;;;;5072566;28;20131;-61
2023/09/18 01:50:06;;;;;;;21.85;15.85;;;;;;;;;;5070739;28;20021;-61
2023/09/18 01:52:34;;;;;;;21.60;15.27;;;;;;;;;;5071185;28;20531;-61
2023/09/18 01:55:00;;;;;;;21.15;14.00;;;;;;;;;;5070503;28;20560;-61
2023/09/18 01:57:26;;;;;;;22.50;15.13;;;;;;;;;;5071304;28;20060;-62
2023/09/18 01:59:52;;;;;;;21.40;14.85;;;;;;;;;;5070806;28;20378;-61
2023/09/18 02:02:18;;;;;;;24.85;14.88;;;;;;;;;;5072465;28;20033;-61
2023/09/18 02:04:45;;;;;;;20.92;14.35;;;;;;;;;;5071959;28;20386;-60
2023/09/18 02:07:11;;;;;;;23.77;16.27;;;;;;;;;;5070882;28;20016;-61
2023/09/18 02:09:37;;;;;;;20.63;14.57;;;;;;;;;;5072210;28;20032;-61
2023/09/18 02:12:04;;;;;;;21.60;15.50;;;;;;;;;;5071623;28;20028;-61
2023/09/18 02:14:31;;;;;;;22.05;15.85;;;;;;;;;;5070927;28;20024;-61
2023/09/18 02:16:57;;;;;;;26.00;15.93;;;;;;;;;;5071874;28;20386;-62
2023/09/18 02:19:23;;;;;;;20.02;15.18;;;;;;;;;;5071848;28;20045;-61
2023/09/18 02:21:49;;;;;;;22.45;16.38;;;;;;;;;;5070532;28;20445;-60
2023/09/18 02:24:15;;;;;;;21.13;15.18;;;;;;;;;;5071948;28;20020;-61
2023/09/18 02:26:41;;;;;;;22.92;16.23;;;;;;;;;;5071735;28;20117;-56
2023/09/18 02:29:11;;;;;;;24.67;15.63;;;;;;;;;;5070361;28;20024;-60
2023/09/18 02:31:36;;;;;;;26.67;16.83;;;;;;;;;;5071697;28;20024;-58
2023/09/18 02:34:03;;;;;;;20.63;15.25;;;;;;;;;;5071684;28;20052;-61
2023/09/18 02:36:28;;;;;;;20.95;14.98;;;;;;;;;;5071754;28;20032;-61
2023/09/18 02:38:55;;;;;;;21.90;15.52;;;;;;;;;;5071807;28;20020;-62
2023/09/18 02:41:21;;;;;;;25.77;16.15;;;;;;;;;;5071432;28;20083;-61
2023/09/18 02:43:47;;;;;;;21.70;15.80;;;;;;;;;;5071316;28;20044;-61
2023/09/18 02:46:13;;;;;;;21.95;16.30;;;;;;;;;;5071457;28;20063;-62
2023/09/18 02:48:39;;;;;;;21.90;15.57;;;;;;;;;;5071339;28;20625;-61
2023/09/18 02:51:05;;;;;;;22.42;16.23;;;;;;;;;;5071077;28;20385;-61
2023/09/18 02:53:31;;;;;;;21.83;15.80;;;;;;;;;;5071417;28;20024;-61
2023/09/18 02:55:58;;;;;;;21.02;15.77;;;;;;;;;;5071274;28;20025;-60
2023/09/18 02:58:25;;;;;;;22.42;16.60;;;;;;;;;;5071511;28;20024;-61
2023/09/18 03:00:53;;;;;;;23.10;16.17;;;;;;;;;;5071176;28;20024;-61
2023/09/18 03:03:19;;;;;;;22.63;14.90;;;;;;;;;;5071223;28;20036;-62
2023/09/18 03:05:45;;;;;;;20.85;14.93;;;;;;;;;;5071004;28;20168;-61
2023/09/18 03:08:11;;;;;;;23.63;16.38;;;;;;;;;;5071090;28;20028;-60
2023/09/18 03:10:41;;;;;;;21.83;15.30;;;;;;;;;;5069469;28;20109;-61
2023/09/18 03:13:08;;;;;;;22.45;15.00;;;;;;;;;;5071053;28;20463;-61
2023/09/18 03:15:34;;;;;;;21.25;15.32;;;;;;;;;;5071026;28;20027;-60
2023/09/18 03:18:00;;;;;;;26.23;16.48;;;;;;;;;;5069278;28;20410;-61
2023/09/18 03:20:27;;;;;;;21.35;14.88;;;;;;;;;;5070580;28;20099;-61
2023/09/18 03:22:55;;;;;;;22.42;16.30;;;;;;;;;;5070765;28;20030;-61
2023/09/18 03:25:21;;;;;;;22.10;16.33;;;;;;;;;;5070313;28;20036;-62
2023/09/18 03:27:47;;;;;;;22.85;16.08;;;;;;;;;;5070346;28;20267;-61
2023/09/18 03:30:15;;;;;;;22.25;17.13;;;;;;;;;;5070170;28;20028;-62
2023/09/18 03:32:42;;;;;;;20.52;15.18;;;;;;;;;;5070467;28;20040;-62
2023/09/18 03:35:15;;;;;;;24.05;15.02;;;;;;;;;;5060683;28;20071;-60
2023/09/18 03:37:41;;;;;;;22.23;14.65;;;;;;;;;;5070181;28;20017;-61
2023/09/18 03:40:07;;;;;;;22.70;15.55;;;;;;;;;;5070329;28;20478;-60
2023/09/18 03:42:33;;;;;;;23.65;15.35;;;;;;;;;;5070275;28;20032;-61
2023/09/18 03:44:59;;;;;;;22.50;15.15;;;;;;;;;;5069970;28;20028;-61
2023/09/18 03:47:25;;;;;;;21.25;15.70;;;;;;;;;;5068890;28;20052;-62
2023/09/18 03:49:51;;;;;;;23.35;14.82;;;;;;;;;;5069703;28;20111;-59
2023/09/18 03:52:17;;;;;;;23.35;14.50;;;;;;;;;;5069812;28;20107;-61
2023/09/18 03:54:43;;;;;;;22.33;15.85;;;;;;;;;;5069967;28;20501;-61
2023/09/18 03:57:09;;;;;;;22.80;16.95;;;;;;;;;;5069945;28;20024;-61
2023/09/18 03:59:35;;;;;;;23.20;16.13;;;;;;;;;;5068806;28;20414;-60
2023/09/18 04:02:02;;;;;;;22.08;16.35;;;;;;;;;;5068763;28;20030;-61
2023/09/18 04:04:28;;;;;;;23.40;16.17;;;;;;;;;;5069736;28;20524;-61
2023/09/18 04:06:54;;;;;;;23.42;15.65;;;;;;;;;;5069567;28;20557;-62
2023/09/18 04:09:20;;;;;;;23.00;15.80;;;;;;;;;;5068513;28;20071;-63
2023/09/18 04:11:46;;;;;;;21.42;15.57;;;;;;;;;;5069560;28;20047;-61
2023/09/18 04:14:13;;;;;;;24.20;16.25;;;;;;;;;;5069675;28;20074;-61
2023/09/18 04:16:41;;;;;;;21.48;15.48;;;;;;;;;;5069765;28;20032;-61
2023/09/18 04:19:08;;;;;;;21.33;15.00;;;;;;;;;;5069192;28;20106;-61
2023/09/18 04:21:34;;;;;;;23.25;15.57;;;;;;;;;;5069260;28;20021;-61
2023/09/18 04:24:00;;;;;;;21.88;14.73;;;;;;;;;;5069609;28;20443;-62
2023/09/18 04:26:29;;;;;;;19.45;14.93;;;;;;;;;;5069721;28;20108;-62
2023/09/18 04:28:55;;;;;;;21.08;14.98;;;;;;;;;;5069590;28;20070;-62
2023/09/18 04:31:21;;;;;;;19.55;14.52;;;;;;;;;;5069347;28;20052;-61
2023/09/18 04:33:48;;;;;;;21.02;15.20;;;;;;;;;;5069515;28;20044;-61
2023/09/18 04:36:14;;;;;;;21.52;15.20;;;;;;;;;;5068405;28;20021;-61
2023/09/18 04:38:40;;;;;;;19.65;14.15;;;;;;;;;;5069630;28;20025;-61
2023/09/18 04:41:10;;;;;;;22.45;13.63;;;;;;;;;;5069241;28;20104;-61
2023/09/18 04:43:36;;;;;;;22.70;15.00;;;;;;;;;;5069555;28;20036;-62
2023/09/18 04:46:04;;;;;;;24.25;14.82;;;;;;;;;;5061046;28;20072;-62
2023/09/18 04:48:30;;;;;;;20.63;15.55;;;;;;;;;;5068058;28;20169;-61
2023/09/18 04:50:57;;;;;;;20.25;15.20;;;;;;;;;;5069055;28;20147;-61
2023/09/18 04:53:23;;;;;;;19.95;15.07;;;;;;;;;;5069835;28;20541;-59
2023/09/18 04:55:51;;;;;;;20.95;14.38;;;;;;;;;;5068353;28;20104;-62
2023/09/18 04:58:18;;;;;;;20.65;14.93;;;;;;;;;;5069514;28;20048;-63
2023/09/18 05:00:44;;;;;;;19.30;13.50;;;;;;;;;;5067265;28;20029;-62
2023/09/18 05:03:11;;;;;;;19.40;13.48;;;;;;;;;;5069234;28;20534;-62
2023/09/18 05:05:37;;;;;;;20.58;14.30;;;;;;;;;;5069303;28;20536;-61
2023/09/18 05:08:04;;;;;;;23.25;15.00;;;;;;;;;;5069228;28;20193;-62
2023/09/18 05:10:30;;;;;;;22.80;14.52;;;;;;;;;;5067465;28;20066;-61
2023/09/18 05:13:00;;;;;;;26.85;14.40;;;;;;;;;;5069496;28;20028;-61
2023/09/18 05:15:26;;;;;;;21.55;13.63;;;;;;;;;;5069126;28;20032;-61
2023/09/18 05:17:56;;;;;;;26.55;14.20;;;;;;;;;;5069207;28;20435;-59
2023/09/18 05:20:24;;;;;;;20.67;14.27;;;;;;;;;;5067341;28;20391;-60
2023/09/18 05:22:50;;;;;;;22.20;13.65;;;;;;;;;;5069238;28;20055;-60
2023/09/18 05:25:16;;;;;;;20.13;13.98;;;;;;;;;;5060382;28;20033;-61
2023/09/18 05:27:46;;;;;;;22.02;14.50;;;;;;;;;;5058456;28;20028;-62
2023/09/18 05:30:15;;;;;;;21.52;14.60;;;;;;;;;;5069122;28;20032;-61
2023/09/18 05:32:43;;;;;;;21.48;14.63;;;;;;;;;;5072710;28;20021;-61
2023/09/18 05:35:12;;;;;;;21.23;15.05;;;;;;;;;;5064308;28;20020;-61
2023/09/18 05:37:38;;;;;;;20.23;14.00;;;;;;;;;;5072230;28;20562;-60
2023/09/18 05:40:12;;;;;;;22.55;14.80;;;;;;;;;;5072373;28;20020;-62
2023/09/18 05:42:39;;;;;;;23.30;14.23;;;;;;;;;;5071988;28;20051;-61
2023/09/18 05:45:05;;;;;;;24.58;14.50;;;;;;;;;;5072038;28;20114;-62
2023/09/18 05:47:35;;;;;;;23.17;13.40;;;;;;;;;;5072257;28;20025;-62
2023/09/18 05:50:04;;;;;;;21.08;13.82;;;;;;;;;;5071479;28;20028;-62
2023/09/18 05:52:30;;;;;;;19.83;14.32;;;;;;;;;;5072170;28;20028;-60
2023/09/18 05:54:56;;;;;;;20.45;14.25;;;;;;;;;;5071761;28;20413;-61
2023/09/18 05:57:22;;;;;;;19.83;13.18;;;;;;;;;;5071705;28;20055;-60
2023/09/18 05:59:48;;;;;;;22.55;13.07;;;;;;;;;;5070088;28;20025;-60
2023/09/18 06:02:16;;;;;;;21.00;14.23;;;;;;;;;;5070284;28;20454;-61
2023/09/18 06:04:42;;;;;;;19.77;13.77;;;;;;;;;;5071714;28;20103;-59
2023/09/18 06:07:08;;;;;;;21.58;14.02;;;;;;;;;;5071823;28;20116;-62
2023/09/18 06:09:34;;;;;;;22.92;14.63;;;;;;;;;;5071373;28;20025;-62
2023/09/18 06:12:00;;;;;;;22.60;13.75;;;;;;;;;;5069858;28;20043;-61
2023/09/18 06:14:26;;;;;;;22.15;14.43;;;;;;;;;;5070289;28;20021;-59
2023/09/18 06:16:52;;;;;;;25.00;14.43;;;;;;;;;;5071385;28;20024;-61
2023/09/18 06:19:18;;;;;;;22.15;14.27;;;;;;;;;;5071452;28;20048;-62
2023/09/18 06:21:44;;;;;;;22.00;14.75;;;;;;;;;;5071552;28;20034;-61
2023/09/18 06:24:11;;;;;;;21.98;15.25;;;;;;;;;;5070569;28;20503;-61
2023/09/18 06:26:37;;;;;;;19.77;14.10;;;;;;;;;;5086564;22;20079;-55
2023/09/18 06:29:04;;;;;;;23.05;14.88;;;;;;;;;;5071275;28;20029;-52
2023/09/18 06:31:31;;;;;;;22.52;14.43;;;;;;;;;;5071515;28;20032;-56
2023/09/18 06:33:57;;;;;;;19.77;14.20;;;;;;;;;;5071764;28;20039;-57
2023/09/18 06:36:23;;;;;;;22.88;14.30;;;;;;;;;;5056331;28;20021;-55
2023/09/18 06:38:49;;;;;;;22.67;14.48;;;;;;;;;;5070935;28;20028;-52
2023/09/18 06:41:14;;;;;;;22.77;14.80;;;;;;;;;;5070573;28;20497;-55
2023/09/18 06:43:40;;;;;;;25.42;14.95;;;;;;;;;;5072222;28;20182;-56
2023/09/18 06:46:10;;;;;;;19.55;14.05;;;;;;;;;;5071862;28;20027;-55
2023/09/18 06:48:35;;;;;;;21.13;14.25;;;;;;;;;;5070819;28;20020;-52
2023/09/18 06:51:02;;;;;;;23.77;15.15;;;;;;;;;;5070175;28;20035;-55
2023/09/18 06:53:28;;;;;;;20.50;14.93;;;;;;;;;;5071949;28;20386;-55
2023/09/18 06:55:54;;;;;;;20.95;14.57;;;;;;;;;;5071444;28;20086;-54
2023/09/18 06:58:21;;;;;;;23.67;13.95;;;;;;;;;;5071643;28;20021;-53
2023/09/18 07:00:47;;;;;;;24.83;14.55;;;;;;;;;;5071381;28;20150;-56
2023/09/18 07:03:13;;;;;;;22.40;13.75;;;;;;;;;;5070611;28;20371;-55
2023/09/18 07:05:41;;;;;;;22.63;13.32;;;;;;;;;;5071641;28;20031;-51
2023/09/18 07:08:11;;;;;;;;;;;;;;;;;;5071939;28;20099;-56
2023/09/18 07:10:37;;;;;;;23.08;13.40;;;;;;;;;;5071284;28;19904;-57
2023/09/18 07:13:03;;;;;;;21.73;13.93;;;;;;;;;;5071333;28;20024;-55
2023/09/18 07:15:29;;;;;;;25.60;13.85;;;;;;;;;;5066367;28;20078;-56
2023/09/18 07:17:55;;;;;;;23.02;14.52;;;;;;;;;;5069897;28;20017;-57
2023/09/18 07:20:22;;;;;;;21.20;13.55;;;;;;;;;;5070007;28;20020;-57
2023/09/18 07:22:49;;;;;;;23.50;14.15;;;;;;;;;;5071446;28;20036;-55
2023/09/18 07:25:16;;;;;;;20.00;13.23;;;;;;;;;;5071403;28;20028;-55
2023/09/18 07:27:44;;;;;;;21.05;13.88;;;;;;;;;;5071304;28;20409;-56
2023/09/18 07:30:11;;;;;;;21.08;13.10;;;;;;;;;;5071011;28;20063;-52
2023/09/18 07:32:37;;;;;;;21.60;13.85;;;;;;;;;;5070949;28;20029;-53
2023/09/18 07:35:05;;;;;;;22.67;14.02;;;;;;;;;;5066216;28;20028;-55
2023/09/18 07:37:31;;;;;;;19.33;13.20;;;;;;;;;;5069971;28;20020;-58
2023/09/18 07:39:57;;;;;;;22.02;13.80;;;;;;;;;;5070798;28;20044;-57
2023/09/18 07:42:27;;;;;;;22.38;13.48;;;;;;;;;;5070628;28;20025;-54
2023/09/18 07:44:53;;;;;;;20.75;13.32;;;;;;;;;;5070873;28;20389;-56
2023/09/18 07:47:19;;;;;;;22.58;13.60;;;;;;;;;;5070868;28;20020;-54
2023/09/18 07:49:45;;;;;;;20.10;13.55;;;;;;;;;;5069509;28;20094;-52
2023/09/18 07:52:11;;;;;;;19.35;14.00;;;;;;;;;;5071040;28;20546;-50
2023/09/18 07:54:37;;;;;;;22.52;13.63;;;;;;;;;;5070303;28;20123;-53
2023/09/18 07:57:03;;;;;;;19.35;13.23;;;;;;;;;;5070791;28;20145;-51
2023/09/18 07:59:30;;;;;;;19.83;13.63;;;;;;;;;;5070815;28;20024;-53
2023/09/18 08:01:56;;;;;;;20.85;13.80;;;;;;;;;;5069295;28;20024;-49
2023/09/18 08:04:22;;;;;;;21.67;14.07;;;;;;;;;;5070533;28;20039;-48
2023/09/18 08:06:48;;;;;;;23.38;14.05;;;;;;;;;;5069390;28;20032;-51
2023/09/18 08:09:14;;;;;;;21.08;13.82;;;;;;;;;;5070702;28;20027;-50
2023/09/18 08:11:42;;;;;;;21.02;13.73;;;;;;;;;;5068572;28;20072;-52
2023/09/18 08:14:10;;;;;;;18.45;13.10;;;;;;;;;;5062609;28;20048;-51
2023/09/18 08:16:38;;;;;;;18.65;13.23;;;;;;;;;;5069538;28;20211;-52
2023/09/18 08:19:04;;;;;;;19.92;13.13;;;;;;;;;;5066165;28;20512;-53
2023/09/18 08:21:30;;;;;;;19.48;13.40;;;;;;;;;;5063667;28;20073;-51
2023/09/18 08:23:56;;;;;;;23.55;13.95;;;;;;;;;;5066216;28;20028;-55
2023/09/18 08:26:22;;;;;;;18.88;13.43;;;;;;;;;;5068294;28;20029;-52
2023/09/18 08:28:49;;;;;;;18.05;13.77;;;;;;;;;;5067545;28;20500;-54
2023/09/18 08:31:16;;;;;;;18.88;13.75;;;;;;;;;;5070297;28;20055;-52
2023/09/18 08:33:42;;;;;;;20.65;13.25;;;;;;;;;;5070573;28;20043;-54
2023/09/18 08:36:08;;;;;;;19.63;13.50;;;;;;;;;;5070332;28;20478;-53
2023/09/18 08:38:34;;;;;;;20.38;14.00;;;;;;;;;;5068934;28;20089;-54
2023/09/18 08:41:00;;;;;;;18.73;12.98;;;;;;;;;;5069852;28;20056;-56
2023/09/18 08:43:26;;;;;;;20.70;13.30;;;;;;;;;;5070350;28;20036;-51
2023/09/18 08:45:53;;;;;;;18.25;13.18;;;;;;;;;;5061735;28;20033;-53
2023/09/18 08:48:20;;;;;;;17.02;12.57;;;;;;;;;;5069167;28;20031;-51
2023/09/18 08:50:47;;;;;;;18.17;13.68;;;;;;;;;;5069993;28;20025;-56
2023/09/18 08:53:14;;;;;;;17.50;13.25;;;;;;;;;;5070057;28;20137;-56
2023/09/18 08:55:40;;;;;;;19.48;13.23;;;;;;;;;;5070355;28;20051;-54
2023/09/18 08:58:07;;;;;;;22.13;13.73;;;;;;;;;;5069998;28;20016;-55
2023/09/18 09:00:35;;;;;;;18.13;13.30;;;;;;;;;;5070186;28;20017;-52
2023/09/18 09:03:01;;;;;;;18.65;13.00;;;;;;;;;;5070177;28;20444;-51
2023/09/18 09:05:28;;;;;;;18.00;13.63;;;;;;;;;;5072944;28;20025;-53
2023/09/18 09:07:54;;;;;;;17.20;13.23;;;;;;;;;;5074060;28;20107;-52
2023/09/18 09:10:20;;;;;;;18.70;13.80;;;;;;;;;;5073656;28;20099;-51
2023/09/18 09:12:54;;;;;;;18.42;12.88;;;;;;;;;;5072701;28;20060;-57
2023/09/18 09:15:21;;;;;;;18.10;13.50;;;;;;;;;;5072484;28;20502;-54
2023/09/18 09:17:47;;;;;;;20.13;13.60;;;;;;;;;;5074116;28;20040;-57
2023/09/18 09:20:13;;;;;;;17.50;13.55;;;;;;;;;;5073714;28;20860;-54
2023/09/18 09:22:40;;;;;;;17.73;13.20;;;;;;;;;;5073634;28;20082;-56
2023/09/18 09:25:21;;;;;;;20.98;13.73;;;;;;;;;;5073478;28;20031;-53
2023/09/18 09:27:48;;;;;;;19.17;13.85;;;;;;;;;;5073378;28;20056;-53
2023/09/18 09:30:24;;;;;;;18.10;14.07;;;;;;;;;;5072025;28;20036;-53
2023/09/18 09:32:51;;;;;;;17.80;14.00;;;;;;;;;;5073444;28;20021;-67
2023/09/18 09:35:21;;;;;;;20.55;14.15;;;;;;;;;;5073403;28;20048;-65
2023/09/18 09:37:48;;;;;;;18.65;13.93;;;;;;;;;;5073973;28;20041;-66
2023/09/18 09:40:14;;;;;;;19.00;13.73;;;;;;;;;;5073711;28;20104;-66
2023/09/18 09:42:43;;;;;;;17.55;13.48;;;;;;;;;;5073779;28;20547;-67
2023/09/18 09:45:15;;;;;;;17.27;13.45;;;;;;;;;;5074135;28;20039;-67
2023/09/18 09:47:41;;;;;;;20.35;14.43;;;;;;;;;;5072189;28;20048;-65
2023/09/18 09:50:09;;;;;;;18.48;13.73;;;;;;;;;;5073076;28;20056;-62
2023/09/18 09:52:36;;;;;;;19.00;13.43;;;;;;;;;;5072174;28;20028;-64
2023/09/18 09:55:18;;;;;;;19.13;13.00;;;;;;;;;;5071822;28;20444;-65
2023/09/18 09:57:47;;;;;;;20.17;13.48;;;;;;;;;;5075488;28;20061;-65
2023/09/18 10:00:27;;;;;;;18.45;13.68;;;;;;;;;;5052137;28;20510;-64
2023/09/18 10:03:00;;;;;;;19.23;14.10;;;;;;;;;;5056101;28;20021;-64
2023/09/18 10:05:31;;;;;;;17.20;13.70;;;;;;;;;;5054263;28;20158;-67
2023/09/18 10:08:02;;;;;;;18.58;13.90;;;;;;;;;;5051950;28;20021;-65
2023/09/18 10:10:33;;;;;;;17.30;13.40;;;;;;;;;;5053211;28;20029;-66
2023/09/18 10:13:22;;;;;;;18.70;13.88;;;;;;;;;;5053757;28;20025;-65
2023/09/18 10:15:49;;;;;;;17.40;13.32;;;;;;;;;;5052239;28;20088;-64
2023/09/18 10:18:24;;;;;;;22.00;14.02;;;;;;;;;;5053639;28;20024;-65
2023/09/18 10:20:51;;;;;;;19.17;14.20;;;;;;;;;;5052990;28;20032;-65
2023/09/18 10:23:36;;;;;;;18.30;14.32;;;;;;;;;;5051479;28;20108;-62
2023/09/18 10:26:05;;;;;;;20.17;14.73;;;;;;;;;;5068494;28;20111;-67
2023/09/18 10:28:31;;;;;;;;;;;;;;;;;;5073395;28;20020;-65
2023/09/18 10:30:58;;;;;;;17.73;13.55;;;;;;;;;;5071239;28;19927;-66
2023/09/18 10:33:25;;;;;;;20.20;14.17;;;;;;;;;;5071823;28;20020;-64
2023/09/18 10:35:53;;;;;;;17.73;13.80;;;;;;;;;;5072764;28;20620;-66
2023/09/18 10:38:19;;;;;;;19.30;14.30;;;;;;;;;;5072772;28;20028;-66
2023/09/18 10:40:47;;;;;;;17.88;13.65;;;;;;;;;;5070742;28;20490;-66
2023/09/18 10:43:16;;;;;;;21.73;13.97;;;;;;;;;;5071058;28;20410;-66
2023/09/18 10:45:44;;;;;;;17.10;13.25;;;;;;;;;;5071135;28;20277;-53
2023/09/18 10:48:10;;;;;;;17.80;14.05;;;;;;;;;;5072324;28;20101;-57
2023/09/18 10:50:36;;;;;;;18.00;14.10;;;;;;;;;;5072146;28;20429;-54
2023/09/18 10:53:02;;;;;;;17.38;13.55;;;;;;;;;;5072262;28;20028;-52
2023/09/18 10:55:28;;;;;;;19.02;13.98;;;;;;;;;;5071133;28;20021;-64
2023/09/18 10:57:56;;;;;;;16.98;13.30;;;;;;;;;;5067663;28;20028;-56
2023/09/18 11:00:24;;;;;;;17.05;13.10;;;;;;;;;;5071585;28;20043;-59
2023/09/18 11:02:55;;;;;;;18.60;13.73;;;;;;;;;;5071404;28;20024;-60
2023/09/18 11:05:31;;;;;;;16.60;13.40;;;;;;;;;;5070107;28;20021;-60
2023/09/18 11:08:16;;;;;;;17.25;12.95;;;;;;;;;;5071111;28;20063;-59
2023/09/18 11:11:09;;;;;;;17.27;13.38;;;;;;;;;;5070280;28;20032;-58
2023/09/18 11:13:35;;;;;;;17.60;13.02;;;;;;;;;;5063256;28;20036;-58
2023/09/18 11:16:25;;;;;;;18.27;13.30;;;;;;;;;;5069029;28;20421;-56
2023/09/18 11:18:54;;;;;;;17.20;13.00;;;;;;;;;;5063223;28;20049;-57
2023/09/18 11:21:25;;;;;;;17.50;13.32;;;;;;;;;;5069764;28;20375;-56
2023/09/18 11:23:58;;;;;;;17.13;13.20;;;;;;;;;;5071318;28;20020;-61
2023/09/18 11:26:28;;;;;;;16.15;12.63;;;;;;;;;;5069664;28;20037;-60
2023/09/18 11:28:54;;;;;;;15.73;12.68;;;;;;;;;;5067437;28;20059;-60
2023/09/18 11:31:22;;;;;;;18.95;13.77;;;;;;;;;;5069197;28;20481;-60
2023/09/18 11:33:48;;;;;;;17.95;13.60;;;;;;;;;;5070541;28;20025;-55
2023/09/18 11:36:15;;;;;;;17.70;13.40;;;;;;;;;;5066355;28;20033;-57
2023/09/18 11:39:02;;;;;;;16.98;13.13;;;;;;;;;;5060520;28;20404;-59
2023/09/18 11:41:29;;;;;;;17.40;13.30;;;;;;;;;;5070964;28;20017;-55
2023/09/18 11:44:07;;;;;;;18.10;13.90;;;;;;;;;;5068061;28;20033;-55
2023/09/18 11:46:33;;;;;;;;;;;;;;;;;;5071634;28;20433;-58
2023/09/18 11:49:00;;;;;;;17.27;13.80;;;;;;;;;;5070486;28;20058;-58
2023/09/18 11:51:26;;;;;;;17.30;14.15;;;;;;;;;;5070799;28;20498;-59
2023/09/18 11:53:55;;;;;;;18.67;14.40;;;;;;;;;;5071204;28;20032;-57
2023/09/18 11:56:22;;;;;;;16.70;14.60;;;;;;;;;;5065586;28;20028;-56
2023/09/18 11:58:51;;;;;;;17.83;13.82;;;;;;;;;;5070822;28;20099;-58
2023/09/18 12:01:22;;;;;;;18.75;15.30;;;;;;;;;;5070775;28;20088;-63
2023/09/18 12:03:53;;;;;;;18.45;14.60;;;;;;;;;;5069999;28;20027;-62
2023/09/18 12:06:19;;;;;;;18.10;14.60;;;;;;;;;;5068966;28;20024;-64
2023/09/18 12:08:46;;;;;;;18.17;14.10;;;;;;;;;;5070988;28;20497;-63
2023/09/18 12:11:16;;;;;;;16.90;13.90;;;;;;;;;;5070518;28;20029;-64
2023/09/18 12:13:43;;;;;;;17.55;13.48;;;;;;;;;;5069420;28;20837;-63
2023/09/18 12:16:09;;;;;;;17.42;13.80;;;;;;;;;;5070813;28;20449;-61
2023/09/18 12:18:38;;;;;;;18.08;13.88;;;;;;;;;;5070800;28;20028;-64
2023/09/18 12:21:06;;;;;;;16.90;14.25;;;;;;;;;;5069085;28;20035;-63
2023/09/18 12:23:43;;;;;;;17.88;14.00;;;;;;;;;;5070821;28;20017;-64
2023/09/18 12:26:10;;;;;;;17.98;13.60;;;;;;;;;;5069092;28;20028;-62
2023/09/18 12:28:37;;;;;;;18.08;14.30;;;;;;;;;;5071377;28;20082;-62
2023/09/18 12:31:06;;;;;;;17.27;14.27;;;;;;;;;;5069110;28;20029;-62
2023/09/18 12:33:39;;;;;;;19.20;14.45;;;;;;;;;;5070427;28;20520;-61
2023/09/18 12:36:06;;;;;;;18.15;14.45;;;;;;;;;;5070459;28;20028;-61
2023/09/18 12:38:32;;;;;;;17.33;14.07;;;;;;;;;;5063218;28;20029;-62
2023/09/18 12:41:09;;;;;;;18.02;14.45;;;;;;;;;;5072513;28;20028;-61
2023/09/18 12:43:39;;;;;;;20.05;14.50;;;;;;;;;;5069989;28;20024;-62
2023/09/18 12:46:06;;;;;;;18.20;14.40;;;;;;;;;;5070408;28;20032;-62
2023/09/18 12:48:32;;;;;;;16.80;14.50;;;;;;;;;;5074517;28;20025;-62
2023/09/18 12:51:07;;;;;;;18.90;14.38;;;;;;;;;;5071697;28;20107;-63
2023/09/18 12:53:34;;;;;;;18.48;14.50;;;;;;;;;;5073993;28;20504;-61
2023/09/18 12:56:26;;;;;;;17.60;14.50;;;;;;;;;;5074204;28;20386;-61
2023/09/18 12:58:52;;;;;;;17.63;14.80;;;;;;;;;;5071054;28;20107;-61
2023/09/18 13:01:18;;;;;;;17.75;14.95;;;;;;;;;;5072949;28;20031;-61
2023/09/18 13:03:45;;;;;;;17.23;14.50;;;;;;;;;;5073525;28;20113;-62
2023/09/18 13:06:12;;;;;;;17.27;14.85;;;;;;;;;;5066219;28;20090;-61
2023/09/18 13:08:38;;;;;;;19.10;15.25;;;;;;;;;;5070113;28;20051;-61
2023/09/18 13:11:06;;;;;;;18.67;14.85;;;;;;;;;;5073228;28;20105;-61
2023/09/18 13:13:32;;;;;;;19.90;15.15;;;;;;;;;;5073271;28;20078;-61
2023/09/18 13:16:00;;;;;;;18.48;15.00;;;;;;;;;;5073059;28;20028;-61
2023/09/18 13:18:26;;;;;;;19.77;15.50;;;;;;;;;;5069681;28;20025;-61
2023/09/18 13:20:53;;;;;;;17.90;14.85;;;;;;;;;;5072133;28;20430;-58
2023/09/18 13:23:19;;;;;;;20.05;15.05;;;;;;;;;;5074868;28;20029;-60
2023/09/18 13:25:46;;;;;;;17.63;14.65;;;;;;;;;;5073851;28;20381;-59
2023/09/18 13:28:13;;;;;;;19.27;14.70;;;;;;;;;;5071715;28;20139;-60
2023/09/18 13:30:40;;;;;;;17.95;14.43;;;;;;;;;;5072574;28;20344;-60
2023/09/18 13:33:07;;;;;;;18.55;14.65;;;;;;;;;;5066998;28;20111;-57
2023/09/18 13:35:35;;;;;;;17.55;14.27;;;;;;;;;;5070224;28;20024;-61
2023/09/18 13:38:01;;;;;;;21.60;14.40;;;;;;;;;;5071431;28;20081;-61
2023/09/18 13:40:27;;;;;;;17.55;14.75;;;;;;;;;;5072631;28;20466;-60
2023/09/18 13:42:54;;;;;;;19.45;15.23;;;;;;;;;;5071700;28;20111;-61
2023/09/18 13:45:20;;;;;;;19.90;15.30;;;;;;;;;;5072704;28;20059;-61
2023/09/18 13:47:46;;;;;;;16.65;14.85;;;;;;;;;;5072633;28;20060;-60
2023/09/18 13:50:13;;;;;;;17.50;15.02;;;;;;;;;;5072479;28;20118;-62
2023/09/18 13:52:39;;;;;;;18.17;15.65;;;;;;;;;;5070905;28;20029;-59
2023/09/18 13:55:05;;;;;;;17.67;14.50;;;;;;;;;;5072138;28;20036;-58
2023/09/18 13:57:34;;;;;;;17.77;15.02;;;;;;;;;;5068735;28;20048;-57
2023/09/18 14:00:01;;;;;;;17.45;15.50;;;;;;;;;;5071830;28;20085;-60
2023/09/18 14:02:27;;;;;;;18.90;16.02;;;;;;;;;;5071839;28;20021;-60
2023/09/18 14:04:56;;;;;;;18.02;15.68;;;;;;;;;;5072475;28;20016;-60
2023/09/18 14:07:23;;;;;;;21.35;15.98;;;;;;;;;;5071735;28;20028;-59
2023/09/18 14:09:49;;;;;;;19.08;15.73;;;;;;;;;;5072840;28;20035;-59
2023/09/18 14:12:15;;;;;;;18.17;16.13;;;;;;;;;;5071340;28;20032;-60
2023/09/18 14:14:42;;;;;;;19.15;15.20;;;;;;;;;;5072339;28;20467;-60
2023/09/18 14:17:08;;;;;;;19.52;14.55;;;;;;;;;;5075735;28;20020;-60
2023/09/18 14:19:34;;;;;;;17.70;14.80;;;;;;;;;;5076622;28;20159;-61
2023/09/18 14:22:05;;;;;;;18.35;15.00;;;;;;;;;;5074611;28;20099;-59